createdAt,value
2022-12-15T00:12:39.031Z,39.30502
2022-12-15T00:27:41.236Z,3.80371
2022-12-15T00:42:43.422Z,0
2022-12-15T00:57:45.635Z,0
2022-12-15T01:12:47.820Z,0
2022-12-15T01:27:50.034Z,0
2022-12-15T01:42:52.295Z,0
2022-12-15T01:57:54.541Z,0
2022-12-15T02:12:56.739Z,0
2022-12-15T02:27:59.008Z,0
2022-12-15T02:43:01.240Z,0
2022-12-15T02:58:03.444Z,0
2022-12-15T03:13:05.745Z,0
2022-12-15T03:28:07.876Z,0
2022-12-15T03:43:10.152Z,0
2022-12-15T03:58:12.347Z,0
2022-12-15T04:13:14.616Z,0
2022-12-15T04:28:16.833Z,0
2022-12-15T04:43:19.052Z,0
2022-12-15T04:58:21.408Z,0
2022-12-15T05:13:23.690Z,0
2022-12-15T05:28:25.925Z,0
2022-12-15T05:43:28.420Z,0
2022-12-15T05:58:31.187Z,0
2022-12-15T06:13:33.731Z,0
2022-12-15T06:28:37.021Z,0
2022-12-15T06:43:39.217Z,0
2022-12-15T06:58:41.524Z,0
2022-12-15T07:13:43.932Z,0
2022-12-15T07:28:46.530Z,0
2022-12-15T07:43:53.828Z,0
2022-12-15T07:58:56.090Z,0
2022-12-15T08:14:03.487Z,0
2022-12-15T08:29:40.611Z,0
2022-12-15T08:44:51.687Z,0
2022-12-15T08:59:54.064Z,0
2022-12-15T09:14:56.293Z,0
2022-12-15T09:29:58.512Z,0
2022-12-15T09:45:00.900Z,0
2022-12-15T10:00:03.165Z,0
2022-12-15T10:15:05.645Z,0
2022-12-15T10:30:07.865Z,0
2022-12-15T10:45:10.229Z,0
2022-12-15T11:00:12.455Z,0
2022-12-15T11:15:14.714Z,0
2022-12-15T11:30:16.939Z,0
2022-12-15T11:45:19.295Z,0
2022-12-15T12:00:21.496Z,0
2022-12-15T12:15:23.701Z,0
2022-12-15T12:30:26.144Z,0
2022-12-15T12:45:28.435Z,0
2022-12-15T13:00:31.141Z,0
2022-12-15T13:15:33.559Z,0
2022-12-15T13:30:35.828Z,0
2022-12-15T13:45:38.200Z,0
2022-12-15T14:00:40.702Z,0
2022-12-15T14:15:42.920Z,0
2022-12-15T14:30:45.126Z,0
2022-12-15T14:45:50.847Z,0
2022-12-15T15:00:53.480Z,1.2679
2022-12-15T15:15:55.714Z,19.01856
2022-12-15T15:30:58.110Z,135.66571
2022-12-15T15:46:00.407Z,433.62311
2022-12-15T16:01:04.816Z,953.46368
2022-12-15T16:16:10.808Z,1532.89575
2022-12-15T16:31:13.500Z,2014.6991
2022-12-15T16:46:16.154Z,2921.25049
2022-12-15T17:01:18.539Z,3798.63989
2022-12-15T17:16:20.902Z,4629.1167
2022-12-15T17:31:23.267Z,5446.91455
2022-12-15T17:46:25.570Z,6514.48975
2022-12-15T18:01:27.965Z,7564.31396
2022-12-15T18:16:30.311Z,8112.04834
2022-12-15T18:31:32.703Z,8739.66113
2022-12-15T18:46:35.034Z,8786.57324
2022-12-15T19:01:37.649Z,9713.41113
2022-12-15T19:16:40.107Z,10166.05273
2022-12-15T19:31:42.689Z,11212.07324
2022-12-15T19:46:44.896Z,9368.54102
2022-12-15T20:01:47.889Z,8481.00879
2022-12-15T20:16:50.286Z,13678.14648
2022-12-15T20:31:52.661Z,14757.13281
2022-12-15T20:46:54.908Z,10569.24609
2022-12-15T21:01:57.438Z,16075.75195
2022-12-15T21:17:00.113Z,13834.09863
2022-12-15T21:32:02.541Z,10164.78516
2022-12-15T21:47:04.818Z,7296.78662
2022-12-15T22:02:07.084Z,5099.50928
2022-12-15T22:17:09.351Z,3922.89429
2022-12-15T22:32:11.596Z,3376.42773
2022-12-15T22:47:13.856Z,2857.85522
2022-12-15T23:02:16.136Z,2416.62476
2022-12-15T23:17:18.686Z,1804.22717
2022-12-15T23:32:21.200Z,1271.70752
2022-12-15T23:47:23.527Z,531.25171
